createdAt,value
2022-12-01T00:00:00.356Z,15.20
2022-12-01T00:01:00.317Z,15.20
2022-12-01T00:02:00.575Z,15.20
2022-12-01T00:03:00.439Z,15.20
2022-12-01T00:04:00.307Z,15.20
2022-12-01T00:05:00.277Z,15.20
2022-12-01T00:06:01.720Z,15.20
2022-12-01T00:07:00.265Z,15.20
2022-12-01T00:08:00.787Z,15.20
2022-12-01T00:09:00.257Z,15.20
2022-12-01T00:10:00.268Z,15.20
2022-12-01T00:11:04.931Z,15.20
2022-12-01T00:12:00.253Z,15.20
2022-12-01T00:13:02.923Z,15.20
2022-12-01T00:14:00.369Z,15.20
2022-12-01T00:15:00.344Z,15.20
2022-12-01T00:16:10.219Z,15.20
2022-12-01T00:17:00.353Z,14.80
2022-12-01T00:18:01.057Z,14.80
2022-12-01T00:19:00.409Z,14.80
2022-12-01T00:20:00.323Z,14.80
2022-12-01T00:21:04.055Z,14.80
2022-12-01T00:22:00.273Z,14.80
2022-12-01T00:23:00.516Z,14.80
2022-12-01T00:24:00.248Z,14.80
2022-12-01T00:25:00.333Z,14.80
2022-12-01T00:26:02.718Z,14.80
2022-12-01T00:27:00.233Z,14.80
2022-12-01T00:28:00.276Z,14.80
2022-12-01T00:29:00.279Z,14.80
2022-12-01T00:30:00.276Z,14.80
2022-12-01T00:31:00.322Z,14.80
2022-12-01T00:32:00.286Z,14.80
2022-12-01T00:33:00.250Z,14.80
2022-12-01T00:34:00.613Z,14.80
2022-12-01T00:35:00.386Z,14.80
2022-12-01T00:36:00.672Z,14.80
2022-12-01T00:37:00.256Z,14.80
2022-12-01T00:38:00.249Z,14.80
2022-12-01T00:39:00.250Z,14.80
2022-12-01T00:40:00.542Z,14.80
2022-12-01T00:41:08.943Z,14.80
2022-12-01T00:42:00.236Z,14.80
2022-12-01T00:43:00.239Z,14.80
2022-12-01T00:44:00.235Z,14.80
2022-12-01T00:45:00.256Z,14.80
2022-12-01T00:46:00.364Z,14.80
2022-12-01T00:47:00.288Z,14.20
2022-12-01T00:48:00.241Z,14.20
2022-12-01T00:49:00.339Z,14.20
2022-12-01T00:50:00.265Z,14.20
2022-12-01T00:51:00.643Z,14.20
2022-12-01T00:52:00.257Z,14.20
2022-12-01T00:53:04.359Z,14.20
2022-12-01T00:54:00.252Z,14.20
2022-12-01T00:55:00.248Z,14.20
2022-12-01T00:56:00.395Z,14.20
2022-12-01T00:57:00.301Z,14.20
2022-12-01T00:58:00.282Z,14.20
2022-12-01T00:59:00.258Z,14.20
2022-12-01T01:00:00.344Z,14.20
2022-12-01T01:01:01.021Z,14.20
2022-12-01T01:02:00.819Z,14.20
2022-12-01T01:03:00.480Z,14.20
2022-12-01T01:04:00.275Z,14.20
2022-12-01T01:05:00.242Z,14.20
2022-12-01T01:06:04.566Z,14.20
2022-12-01T01:07:00.261Z,14.20
2022-12-01T01:08:00.310Z,14.20
2022-12-01T01:09:00.301Z,14.20
2022-12-01T01:10:00.423Z,14.20
2022-12-01T01:11:00.279Z,14.20
2022-12-01T01:12:00.259Z,14.20
2022-12-01T01:13:00.264Z,14.20
2022-12-01T01:14:00.514Z,14.20
2022-12-01T01:15:00.289Z,14.20
2022-12-01T01:16:01.725Z,14.20
2022-12-01T01:17:00.423Z,14.00
2022-12-01T01:18:00.415Z,14.00
2022-12-01T01:19:00.239Z,14.00
2022-12-01T01:20:00.258Z,14.00
2022-12-01T01:21:01.773Z,14.00
2022-12-01T01:22:00.234Z,14.00
2022-12-01T01:23:00.277Z,14.00
2022-12-01T01:24:00.248Z,14.00
2022-12-01T01:25:00.414Z,14.00
2022-12-01T01:26:02.549Z,14.00
2022-12-01T01:27:00.271Z,14.00
2022-12-01T01:28:00.237Z,14.00
2022-12-01T01:29:00.985Z,14.00
2022-12-01T01:30:00.237Z,14.00
2022-12-01T01:31:03.942Z,14.00
2022-12-01T01:32:00.279Z,14.00
2022-12-01T01:33:00.254Z,14.00
2022-12-01T01:34:00.362Z,14.00
2022-12-01T01:35:00.255Z,14.00
2022-12-01T01:36:00.816Z,14.00
2022-12-01T01:37:00.260Z,14.00
2022-12-01T01:38:00.271Z,14.00
2022-12-01T01:39:00.517Z,14.00
2022-12-01T01:40:00.308Z,14.00
2022-12-01T01:41:02.543Z,14.00
2022-12-01T01:42:00.223Z,14.00
2022-12-01T01:43:00.254Z,14.00
2022-12-01T01:44:01.451Z,14.00
2022-12-01T01:45:00.268Z,14.00
2022-12-01T01:46:00.304Z,14.00
2022-12-01T01:47:00.314Z,13.40
2022-12-01T01:48:00.411Z,13.40
2022-12-01T01:49:01.707Z,13.40
2022-12-01T01:50:01.824Z,13.40
2022-12-01T01:51:00.680Z,13.40
2022-12-01T01:52:01.985Z,13.40
2022-12-01T01:53:01.740Z,13.40
2022-12-01T01:54:03.268Z,13.40
2022-12-01T01:55:00.354Z,13.40
2022-12-01T01:56:01.713Z,13.40
2022-12-01T01:57:01.076Z,13.40
2022-12-01T01:58:01.709Z,13.40
2022-12-01T01:59:00.344Z,13.40
2022-12-01T02:00:02.881Z,13.40
2022-12-01T02:01:00.300Z,13.40
2022-12-01T02:02:02.618Z,13.40
2022-12-01T02:03:01.349Z,13.40
2022-12-01T02:04:00.555Z,13.40
2022-12-01T02:05:01.396Z,13.40
2022-12-01T02:06:04.789Z,13.40
2022-12-01T02:07:00.362Z,13.40
2022-12-01T02:08:01.014Z,13.40
2022-12-01T02:09:00.232Z,13.40
2022-12-01T02:10:00.253Z,13.40
2022-12-01T02:11:07.769Z,13.40
2022-12-01T02:12:01.291Z,13.40
2022-12-01T02:13:07.611Z,13.40
2022-12-01T02:14:08.598Z,13.40
2022-12-01T02:15:01.340Z,13.40
2022-12-01T02:16:00.212Z,13.40
2022-12-01T02:17:00.335Z,12.90
2022-12-01T02:18:10.160Z,12.90
2022-12-01T02:19:10.183Z,12.90
2022-12-01T02:20:07.710Z,12.90
2022-12-01T02:21:10.157Z,12.90
2022-12-01T02:22:10.150Z,12.90
2022-12-01T02:23:10.175Z,12.90
2022-12-01T02:24:03.550Z,12.90
2022-12-01T02:25:10.177Z,12.90
2022-12-01T02:26:07.662Z,12.90
2022-12-01T02:27:04.119Z,12.90
2022-12-01T02:28:10.168Z,12.90
2022-12-01T02:29:10.150Z,12.90
2022-12-01T02:30:04.698Z,12.90
2022-12-01T02:31:03.452Z,12.90
2022-12-01T02:32:01.233Z,12.90
2022-12-01T02:33:10.165Z,12.90
2022-12-01T02:34:08.160Z,12.90
2022-12-01T02:35:10.167Z,12.90
2022-12-01T02:36:03.793Z,12.90
2022-12-01T02:37:09.596Z,12.90
2022-12-01T02:38:07.733Z,12.90
2022-12-01T02:39:03.526Z,12.90
2022-12-01T02:40:04.875Z,12.90
2022-12-01T02:41:01.240Z,12.90
2022-12-01T02:42:03.558Z,12.90
2022-12-01T02:43:02.508Z,12.90
2022-12-01T02:44:05.050Z,12.90
2022-12-01T02:45:03.101Z,12.90
2022-12-01T02:46:10.241Z,12.90
2022-12-01T02:47:07.691Z,13.70
2022-12-01T02:48:01.271Z,13.70
2022-12-01T02:49:03.803Z,13.70
2022-12-01T02:50:01.160Z,13.70
2022-12-01T02:51:05.216Z,13.70
2022-12-01T02:52:01.907Z,13.70
2022-12-01T02:53:02.061Z,13.70
2022-12-01T02:54:01.220Z,13.70
2022-12-01T02:55:00.245Z,13.70
2022-12-01T02:56:00.283Z,13.70
2022-12-01T02:57:00.266Z,13.70
2022-12-01T02:58:00.356Z,13.70
2022-12-01T02:59:00.248Z,13.70
2022-12-01T03:00:01.032Z,13.70
2022-12-01T03:01:06.056Z,13.70
2022-12-01T03:02:01.278Z,13.70
2022-12-01T03:03:10.172Z,13.70
2022-12-01T03:04:10.158Z,13.70
2022-12-01T03:05:04.234Z,13.70
2022-12-01T03:06:10.175Z,13.70
2022-12-01T03:07:07.746Z,13.70
2022-12-01T03:08:00.291Z,13.70
2022-12-01T03:09:03.505Z,13.70
2022-12-01T03:10:07.756Z,13.70
2022-12-01T03:11:00.989Z,13.70
2022-12-01T03:12:01.232Z,13.70
2022-12-01T03:13:01.295Z,13.70
2022-12-01T03:14:01.232Z,13.70
2022-12-01T03:15:03.523Z,13.70
2022-12-01T03:16:10.266Z,13.70
2022-12-01T03:17:03.680Z,15.10
2022-12-01T03:18:05.909Z,15.10
2022-12-01T03:19:10.206Z,15.10
2022-12-01T03:20:05.774Z,15.10
2022-12-01T03:21:05.788Z,15.10
2022-12-01T03:22:05.993Z,15.10
2022-12-01T03:23:05.966Z,15.10
2022-12-01T03:24:02.749Z,15.10
2022-12-01T03:25:01.290Z,15.10
2022-12-01T03:26:02.459Z,15.10
2022-12-01T03:27:01.175Z,15.10
2022-12-01T03:28:20.731Z,15.10
2022-12-01T03:29:04.438Z,15.10
2022-12-01T03:30:01.140Z,15.10
2022-12-01T03:31:03.212Z,15.10
2022-12-01T03:32:03.863Z,15.10
2022-12-01T03:33:02.806Z,15.10
2022-12-01T03:34:06.938Z,15.10
2022-12-01T03:35:03.957Z,15.10
2022-12-01T03:36:10.179Z,15.10
2022-12-01T03:37:03.157Z,15.10
2022-12-01T03:38:04.621Z,15.10
2022-12-01T03:39:03.151Z,15.10
2022-12-01T03:40:02.111Z,15.10
2022-12-01T03:41:05.008Z,15.10
2022-12-01T03:42:06.112Z,15.10
2022-12-01T03:43:03.489Z,15.10
2022-12-01T03:44:06.730Z,15.10
2022-12-01T03:45:03.554Z,15.10
2022-12-01T03:46:00.324Z,15.10
2022-12-01T03:47:03.192Z,14.90
2022-12-01T03:48:00.404Z,14.90
2022-12-01T03:49:00.234Z,14.90
2022-12-01T03:50:01.275Z,14.90
2022-12-01T03:51:10.176Z,14.90
2022-12-01T03:52:01.235Z,14.90
2022-12-01T03:53:10.171Z,14.90
2022-12-01T03:54:01.240Z,14.90
2022-12-01T03:55:07.012Z,14.90
2022-12-01T03:56:01.682Z,14.90
2022-12-01T03:57:03.954Z,14.90
2022-12-01T03:58:03.031Z,14.90
2022-12-01T03:59:02.071Z,14.90
2022-12-01T04:00:00.816Z,14.90
2022-12-01T04:01:02.572Z,14.90
2022-12-01T04:02:00.620Z,14.90
2022-12-01T04:03:01.587Z,14.90
2022-12-01T04:04:04.824Z,14.90
2022-12-01T04:05:00.245Z,14.90
2022-12-01T04:06:00.321Z,14.90
2022-12-01T04:07:00.319Z,14.90
2022-12-01T04:08:00.421Z,14.90
2022-12-01T04:09:00.414Z,14.90
2022-12-01T04:10:00.286Z,14.90
2022-12-01T04:11:00.231Z,14.90
2022-12-01T04:12:00.267Z,14.90
2022-12-01T04:13:04.895Z,14.90
2022-12-01T04:14:03.558Z,14.90
2022-12-01T04:15:09.046Z,14.90
2022-12-01T04:16:01.156Z,14.90
2022-12-01T04:17:00.255Z,19.40
2022-12-01T04:18:00.229Z,19.40
2022-12-01T04:19:00.235Z,19.40
2022-12-01T04:20:00.270Z,19.40
2022-12-01T04:21:00.236Z,19.40
2022-12-01T04:22:00.238Z,19.40
2022-12-01T04:23:00.269Z,19.40
2022-12-01T04:24:00.277Z,19.40
2022-12-01T04:25:00.225Z,19.40
2022-12-01T04:26:01.306Z,19.40
2022-12-01T04:27:00.234Z,19.40
2022-12-01T04:28:00.232Z,19.40
2022-12-01T04:29:03.455Z,19.40
2022-12-01T04:30:00.241Z,19.40
2022-12-01T04:31:00.324Z,19.40
2022-12-01T04:32:00.267Z,19.40
2022-12-01T04:33:00.227Z,19.40
2022-12-01T04:34:00.351Z,19.40
2022-12-01T04:35:00.259Z,19.40
2022-12-01T04:36:00.367Z,19.40
2022-12-01T04:37:00.258Z,19.40
2022-12-01T04:38:00.242Z,19.40
2022-12-01T04:39:01.106Z,19.40
2022-12-01T04:40:00.322Z,19.40
2022-12-01T04:41:00.261Z,19.40
2022-12-01T04:42:00.629Z,19.40
2022-12-01T04:43:00.230Z,19.40
2022-12-01T04:44:00.302Z,19.40
2022-12-01T04:45:00.533Z,19.40
2022-12-01T04:46:00.787Z,19.40
2022-12-01T04:47:00.359Z,16.90
2022-12-01T04:48:00.230Z,16.90
2022-12-01T04:49:00.277Z,16.90
2022-12-01T04:50:00.250Z,16.90
2022-12-01T04:51:00.616Z,16.90
2022-12-01T04:52:00.275Z,16.90
2022-12-01T04:53:00.246Z,16.90
2022-12-01T04:54:00.976Z,16.90
2022-12-01T04:55:00.265Z,16.90
2022-12-01T04:56:00.310Z,16.90
2022-12-01T04:57:00.290Z,16.90
2022-12-01T04:58:00.252Z,16.90
2022-12-01T04:59:00.229Z,16.90
2022-12-01T05:00:00.386Z,16.90
2022-12-01T05:01:01.111Z,16.90
2022-12-01T05:02:00.419Z,16.90
2022-12-01T05:03:00.369Z,16.90
2022-12-01T05:04:00.256Z,16.90
2022-12-01T05:05:00.336Z,16.90
2022-12-01T05:06:02.504Z,16.90
2022-12-01T05:07:00.225Z,16.90
2022-12-01T05:08:00.404Z,16.90
2022-12-01T05:09:00.632Z,16.90
2022-12-01T05:10:00.364Z,16.90
2022-12-01T05:11:00.611Z,16.90
2022-12-01T05:12:00.323Z,16.90
2022-12-01T05:13:00.363Z,16.90
2022-12-01T05:14:00.336Z,16.90
2022-12-01T05:15:00.240Z,16.90
2022-12-01T05:16:10.232Z,16.90
2022-12-01T05:17:00.239Z,17.70
2022-12-01T05:18:00.285Z,17.70
2022-12-01T05:19:01.409Z,17.70
2022-12-01T05:20:00.244Z,17.70
2022-12-01T05:21:00.608Z,17.70
2022-12-01T05:22:00.237Z,17.70
2022-12-01T05:23:06.060Z,17.70
2022-12-01T05:24:00.270Z,17.70
2022-12-01T05:25:00.374Z,17.70
2022-12-01T05:26:00.847Z,17.70
2022-12-01T05:27:00.283Z,17.70
2022-12-01T05:28:00.233Z,17.70
2022-12-01T05:29:00.255Z,17.70
2022-12-01T05:30:00.275Z,17.70
2022-12-01T05:31:00.262Z,17.70
2022-12-01T05:32:00.416Z,17.70
2022-12-01T05:33:00.227Z,17.70
2022-12-01T05:34:00.336Z,17.70
2022-12-01T05:35:00.362Z,17.70
2022-12-01T05:36:00.275Z,17.70
2022-12-01T05:37:00.242Z,17.70
2022-12-01T05:38:04.650Z,17.70
2022-12-01T05:39:00.251Z,17.70
2022-12-01T05:40:02.256Z,17.70
2022-12-01T05:41:00.305Z,17.70
2022-12-01T05:42:00.260Z,17.70
2022-12-01T05:43:00.463Z,17.70
2022-12-01T05:44:00.250Z,17.70
2022-12-01T05:45:00.278Z,17.70
2022-12-01T05:46:00.644Z,17.70
2022-12-01T05:47:00.234Z,17.00
2022-12-01T05:48:00.909Z,17.00
2022-12-01T05:49:00.226Z,17.00
2022-12-01T05:50:05.182Z,17.00
2022-12-01T05:51:06.468Z,17.00
2022-12-01T05:52:00.228Z,17.00
2022-12-01T05:53:00.228Z,17.00
2022-12-01T05:54:00.541Z,17.00
2022-12-01T05:55:00.569Z,17.00
2022-12-01T05:56:00.277Z,17.00
2022-12-01T05:57:00.250Z,17.00
2022-12-01T05:58:00.775Z,17.00
2022-12-01T05:59:00.343Z,17.00
2022-12-01T06:00:00.460Z,17.00
2022-12-01T06:01:00.553Z,17.00
2022-12-01T06:02:00.251Z,17.00
2022-12-01T06:03:00.241Z,17.00
2022-12-01T06:04:00.328Z,17.00
2022-12-01T06:05:00.270Z,17.00
2022-12-01T06:06:00.281Z,17.00
2022-12-01T06:07:00.294Z,17.00
2022-12-01T06:08:00.516Z,17.00
2022-12-01T06:09:00.283Z,17.00
2022-12-01T06:10:00.747Z,17.00
2022-12-01T06:11:00.386Z,17.00
2022-12-01T06:12:00.235Z,17.00
2022-12-01T06:13:00.318Z,17.00
2022-12-01T06:14:00.283Z,17.00
2022-12-01T06:15:00.276Z,17.00
2022-12-01T06:16:01.291Z,17.00
2022-12-01T06:17:00.349Z,24.50
2022-12-01T06:18:00.353Z,24.50
2022-12-01T06:19:00.308Z,24.50
2022-12-01T06:20:00.387Z,24.50
2022-12-01T06:21:00.548Z,24.50
2022-12-01T06:22:00.248Z,24.50
2022-12-01T06:23:00.236Z,24.50
2022-12-01T06:24:00.250Z,24.50
2022-12-01T06:25:00.431Z,24.50
2022-12-01T06:26:00.251Z,24.50
2022-12-01T06:27:00.248Z,24.50
2022-12-01T06:28:00.266Z,24.50
2022-12-01T06:29:00.308Z,24.50
2022-12-01T06:30:00.418Z,24.50
2022-12-01T06:31:03.491Z,24.50
2022-12-01T06:32:00.295Z,24.50
2022-12-01T06:33:00.275Z,24.50
2022-12-01T06:34:00.254Z,24.50
2022-12-01T06:35:00.262Z,24.50
2022-12-01T06:36:01.433Z,24.50
2022-12-01T06:37:00.224Z,24.50
2022-12-01T06:38:00.237Z,24.50
2022-12-01T06:39:00.250Z,24.50
2022-12-01T06:40:00.283Z,24.50
2022-12-01T06:41:00.606Z,24.50
2022-12-01T06:42:00.429Z,24.50
2022-12-01T06:43:00.818Z,24.50
2022-12-01T06:44:00.242Z,24.50
2022-12-01T06:45:00.241Z,24.50
2022-12-01T06:46:02.594Z,24.50
2022-12-01T06:47:00.241Z,23.80
2022-12-01T06:48:00.241Z,23.80
2022-12-01T06:49:00.229Z,23.80
2022-12-01T06:50:00.267Z,23.80
2022-12-01T06:51:00.715Z,23.80
2022-12-01T06:52:01.142Z,23.80
2022-12-01T06:53:00.231Z,23.80
2022-12-01T06:54:05.490Z,23.80
2022-12-01T06:55:00.293Z,23.80
2022-12-01T06:56:00.966Z,23.80
2022-12-01T06:57:00.224Z,23.80
2022-12-01T06:58:00.234Z,23.80
2022-12-01T06:59:00.227Z,23.80
2022-12-01T07:00:00.358Z,23.80
2022-12-01T07:01:06.187Z,23.80
2022-12-01T07:02:00.264Z,23.80
2022-12-01T07:03:00.364Z,23.80
2022-12-01T07:04:00.234Z,23.80
2022-12-01T07:05:00.267Z,23.80
2022-12-01T07:06:00.786Z,23.80
2022-12-01T07:07:00.235Z,23.80
2022-12-01T07:08:00.348Z,23.80
2022-12-01T07:09:00.231Z,23.80
2022-12-01T07:10:00.322Z,23.80
2022-12-01T07:11:01.440Z,23.80
2022-12-01T07:12:00.355Z,23.80
2022-12-01T07:13:00.225Z,23.80
2022-12-01T07:14:00.257Z,23.80
2022-12-01T07:15:00.236Z,23.80
2022-12-01T07:16:01.090Z,23.80
2022-12-01T07:17:00.368Z,20.00
2022-12-01T07:18:00.234Z,20.00
2022-12-01T07:19:00.226Z,20.00
2022-12-01T07:20:00.272Z,20.00
2022-12-01T07:21:00.644Z,20.00
2022-12-01T07:22:00.272Z,20.00
2022-12-01T07:23:00.279Z,20.00
2022-12-01T07:24:00.256Z,20.00
2022-12-01T07:25:00.323Z,20.00
2022-12-01T07:26:01.115Z,20.00
2022-12-01T07:27:00.322Z,20.00
2022-12-01T07:28:00.254Z,20.00
2022-12-01T07:29:00.224Z,20.00
2022-12-01T07:30:00.277Z,20.00
2022-12-01T07:31:02.554Z,20.00
2022-12-01T07:32:00.314Z,20.00
2022-12-01T07:33:00.249Z,20.00
2022-12-01T07:34:00.263Z,20.00
2022-12-01T07:35:00.252Z,20.00
2022-12-01T07:36:00.537Z,20.00
2022-12-01T07:37:00.273Z,20.00
2022-12-01T07:38:00.263Z,20.00
2022-12-01T07:39:03.443Z,20.00
2022-12-01T07:40:00.249Z,20.00
2022-12-01T07:41:00.974Z,20.00
2022-12-01T07:42:00.259Z,20.00
2022-12-01T07:43:00.317Z,20.00
2022-12-01T07:44:00.590Z,20.00
2022-12-01T07:45:00.413Z,20.00
2022-12-01T07:46:04.654Z,20.00
2022-12-01T07:47:00.238Z,20.90
2022-12-01T07:48:02.031Z,20.90
2022-12-01T07:49:00.233Z,20.90
2022-12-01T07:50:00.254Z,20.90
2022-12-01T07:51:00.601Z,20.90
2022-12-01T07:52:00.246Z,20.90
2022-12-01T07:53:00.229Z,20.90
2022-12-01T07:54:01.234Z,20.90
2022-12-01T07:55:00.356Z,20.90
2022-12-01T07:56:05.531Z,20.90
2022-12-01T07:57:00.284Z,20.90
2022-12-01T07:58:00.226Z,20.90
2022-12-01T07:59:00.229Z,20.90
2022-12-01T08:00:00.374Z,20.90
2022-12-01T08:01:04.882Z,20.90
2022-12-01T08:02:00.383Z,20.90
2022-12-01T08:03:00.318Z,20.90
2022-12-01T08:04:00.221Z,20.90
2022-12-01T08:05:00.261Z,20.90
2022-12-01T08:06:00.826Z,20.90
2022-12-01T08:07:00.317Z,20.90
2022-12-01T08:08:00.489Z,20.90
2022-12-01T08:09:00.252Z,20.90
2022-12-01T08:10:00.246Z,20.90
2022-12-01T08:11:01.306Z,20.90
2022-12-01T08:12:00.227Z,20.90
2022-12-01T08:13:00.237Z,20.90
2022-12-01T08:14:00.361Z,20.90
2022-12-01T08:15:00.241Z,20.90
2022-12-01T08:16:04.151Z,20.90
2022-12-01T08:17:00.435Z,17.70
2022-12-01T08:18:00.393Z,17.70
2022-12-01T08:19:00.319Z,17.70
2022-12-01T08:20:00.236Z,17.70
2022-12-01T08:21:00.252Z,17.70
2022-12-01T08:22:00.244Z,17.70
2022-12-01T08:23:00.923Z,17.70
2022-12-01T08:24:00.256Z,17.70
2022-12-01T08:25:00.234Z,17.70
2022-12-01T08:26:01.214Z,17.70
2022-12-01T08:27:00.252Z,17.70
2022-12-01T08:28:00.612Z,17.70
2022-12-01T08:29:00.336Z,17.70
2022-12-01T08:30:00.443Z,17.70
2022-12-01T08:31:06.137Z,17.70
2022-12-01T08:32:00.473Z,17.70
2022-12-01T08:33:00.239Z,17.70
2022-12-01T08:34:03.356Z,17.70
2022-12-01T08:35:00.479Z,17.70
2022-12-01T08:36:00.887Z,17.70
2022-12-01T08:37:00.246Z,17.70
2022-12-01T08:38:00.244Z,17.70
2022-12-01T08:39:00.423Z,17.70
2022-12-01T08:40:00.299Z,17.70
2022-12-01T08:41:00.983Z,17.70
2022-12-01T08:42:00.228Z,17.70
2022-12-01T08:43:00.254Z,17.70
2022-12-01T08:44:01.335Z,17.70
2022-12-01T08:45:00.341Z,17.70
2022-12-01T08:46:00.780Z,17.70
2022-12-01T08:47:00.306Z,17.20
2022-12-01T08:48:00.230Z,17.20
2022-12-01T08:49:00.959Z,17.20
2022-12-01T08:50:00.224Z,17.20
2022-12-01T08:51:04.512Z,17.20
2022-12-01T08:52:00.244Z,17.20
2022-12-01T08:53:00.225Z,17.20
2022-12-01T08:54:00.293Z,17.20
2022-12-01T08:55:00.618Z,17.20
2022-12-01T08:56:01.379Z,17.20
2022-12-01T08:57:00.238Z,17.20
2022-12-01T08:58:00.289Z,17.20
2022-12-01T08:59:00.655Z,17.20
2022-12-01T09:00:00.386Z,17.20
2022-12-01T09:01:01.672Z,17.20
2022-12-01T09:02:05.376Z,17.20
2022-12-01T09:03:00.340Z,17.20
2022-12-01T09:04:01.032Z,17.20
2022-12-01T09:05:00.252Z,17.20
2022-12-01T09:06:01.540Z,17.20
2022-12-01T09:07:01.902Z,17.20
2022-12-01T09:08:00.390Z,17.20
2022-12-01T09:09:00.234Z,17.20
2022-12-01T09:10:00.264Z,17.20
2022-12-01T09:11:02.011Z,17.20
2022-12-01T09:12:00.255Z,17.20
2022-12-01T09:13:00.241Z,17.20
2022-12-01T09:14:00.297Z,17.20
2022-12-01T09:15:00.245Z,17.20
2022-12-01T09:16:03.169Z,17.20
2022-12-01T09:17:00.241Z,37.10
2022-12-01T09:18:00.232Z,37.10
2022-12-01T09:19:00.241Z,37.10
2022-12-01T09:20:00.234Z,37.10
2022-12-01T09:21:08.249Z,37.10
2022-12-01T09:22:00.540Z,37.10
2022-12-01T09:23:00.298Z,37.10
2022-12-01T09:24:00.606Z,37.10
2022-12-01T09:25:00.250Z,37.10
2022-12-01T09:26:00.253Z,37.10
2022-12-01T09:27:00.562Z,37.10
2022-12-01T09:28:00.244Z,37.10
2022-12-01T09:29:02.077Z,37.10
2022-12-01T09:30:00.235Z,37.10
2022-12-01T09:31:04.120Z,37.10
2022-12-01T09:32:00.415Z,37.10
2022-12-01T09:33:00.255Z,37.10
2022-12-01T09:34:02.465Z,37.10
2022-12-01T09:35:00.255Z,37.10
2022-12-01T09:36:01.010Z,37.10
2022-12-01T09:37:00.303Z,37.10
2022-12-01T09:38:00.316Z,37.10
2022-12-01T09:39:00.655Z,37.10
2022-12-01T09:40:00.250Z,37.10
2022-12-01T09:41:03.345Z,37.10
2022-12-01T09:42:10.168Z,37.10
2022-12-01T09:43:01.712Z,37.10
2022-12-01T09:44:04.348Z,37.10
2022-12-01T09:45:01.359Z,37.10
2022-12-01T09:46:03.426Z,37.10
2022-12-01T09:47:03.580Z,31.50
2022-12-01T09:48:01.984Z,31.50
2022-12-01T09:49:01.528Z,31.50
2022-12-01T09:50:00.265Z,31.50
2022-12-01T09:51:00.331Z,31.50
2022-12-01T09:52:00.339Z,31.50
2022-12-01T09:53:02.754Z,31.50
2022-12-01T09:54:00.802Z,31.50
2022-12-01T09:55:00.537Z,31.50
2022-12-01T09:56:07.151Z,31.50
2022-12-01T09:57:00.330Z,31.50
2022-12-01T09:58:01.297Z,31.50
2022-12-01T09:59:01.289Z,31.50
2022-12-01T10:00:01.806Z,31.50
2022-12-01T10:01:00.418Z,31.50
2022-12-01T10:02:01.292Z,31.50
2022-12-01T10:03:00.217Z,31.50
2022-12-01T10:04:07.039Z,31.50
2022-12-01T10:05:03.363Z,31.50
2022-12-01T10:06:27.736Z,31.50
2022-12-01T10:07:03.342Z,31.50
2022-12-01T10:08:04.081Z,31.50
2022-12-01T10:09:10.166Z,31.50
2022-12-01T10:10:03.952Z,31.50
2022-12-01T10:11:05.684Z,31.50
2022-12-01T10:12:09.265Z,31.50
2022-12-01T10:13:00.376Z,31.50
2022-12-01T10:14:00.611Z,31.50
2022-12-01T10:15:10.213Z,31.50
2022-12-01T10:16:06.604Z,31.50
2022-12-01T10:17:10.191Z,27.40
2022-12-01T10:18:10.148Z,27.40
2022-12-01T10:19:06.742Z,27.40
2022-12-01T10:20:04.980Z,27.40
2022-12-01T10:21:10.189Z,27.40
2022-12-01T10:22:01.237Z,27.40
2022-12-01T10:23:08.944Z,27.40
2022-12-01T10:24:01.247Z,27.40
2022-12-01T10:25:06.442Z,27.40
2022-12-01T10:26:06.230Z,27.40
2022-12-01T10:27:10.159Z,27.40
2022-12-01T10:28:10.148Z,27.40
2022-12-01T10:29:03.493Z,27.40
2022-12-01T10:30:07.930Z,27.40
2022-12-01T10:31:03.899Z,27.40
2022-12-01T10:32:04.068Z,27.40
2022-12-01T10:33:05.469Z,27.40
2022-12-01T10:34:05.021Z,27.40
2022-12-01T10:35:00.291Z,27.40
2022-12-01T10:36:00.494Z,27.40
2022-12-01T10:37:00.470Z,27.40
2022-12-01T10:38:01.591Z,27.40
2022-12-01T10:39:01.225Z,27.40
2022-12-01T10:40:01.089Z,27.40
2022-12-01T10:41:01.126Z,27.40
2022-12-01T10:42:04.333Z,27.40
2022-12-01T10:43:00.963Z,27.40
2022-12-01T10:44:02.092Z,27.40
2022-12-01T10:45:01.609Z,27.40
2022-12-01T10:46:04.516Z,27.40
2022-12-01T10:47:01.114Z,26.30
2022-12-01T10:48:10.176Z,26.30
2022-12-01T10:49:06.516Z,26.30
2022-12-01T10:50:01.966Z,26.30
2022-12-01T10:51:10.184Z,26.30
2022-12-01T10:52:00.246Z,26.30
2022-12-01T10:53:00.713Z,26.30
2022-12-01T10:54:06.101Z,26.30
2022-12-01T10:55:00.738Z,26.30
2022-12-01T10:56:03.949Z,26.30
2022-12-01T10:57:00.722Z,26.30
2022-12-01T10:58:09.115Z,26.30
2022-12-01T10:59:10.144Z,26.30
2022-12-01T11:00:00.314Z,26.30
2022-12-01T11:01:02.704Z,26.30
2022-12-01T11:02:01.073Z,26.30
2022-12-01T11:03:00.986Z,26.30
2022-12-01T11:04:07.526Z,26.30
2022-12-01T11:05:01.636Z,26.30
2022-12-01T11:06:01.318Z,26.30
2022-12-01T11:07:00.698Z,26.30
2022-12-01T11:08:00.367Z,26.30
2022-12-01T11:09:02.520Z,26.30
2022-12-01T11:10:00.232Z,26.30
2022-12-01T11:11:00.643Z,26.30
2022-12-01T11:12:01.470Z,26.30
2022-12-01T11:13:10.142Z,26.30
2022-12-01T11:14:01.779Z,26.30
2022-12-01T11:15:00.689Z,26.30
2022-12-01T11:16:01.865Z,26.30
2022-12-01T11:17:10.173Z,27.00
2022-12-01T11:18:02.819Z,27.00
2022-12-01T11:19:10.190Z,27.00
2022-12-01T11:20:10.277Z,27.00
2022-12-01T11:21:10.150Z,27.00
2022-12-01T11:22:01.256Z,27.00
2022-12-01T11:23:10.160Z,27.00
2022-12-01T11:24:00.252Z,27.00
2022-12-01T11:25:02.129Z,27.00
2022-12-01T11:26:02.722Z,27.00
2022-12-01T11:27:00.314Z,27.00
2022-12-01T11:28:02.197Z,27.00
2022-12-01T11:29:02.075Z,27.00
2022-12-01T11:30:01.537Z,27.00
2022-12-01T11:31:08.801Z,27.00
2022-12-01T11:32:01.200Z,27.00
2022-12-01T11:33:02.097Z,27.00
2022-12-01T11:34:00.395Z,27.00
2022-12-01T11:35:03.178Z,27.00
2022-12-01T11:36:00.257Z,27.00
2022-12-01T11:37:01.992Z,27.00
2022-12-01T11:38:29.334Z,27.00
2022-12-01T11:39:00.845Z,27.00
2022-12-01T11:40:10.217Z,27.00
2022-12-01T11:41:00.491Z,27.00
2022-12-01T11:42:01.989Z,27.00
2022-12-01T11:43:01.695Z,27.00
2022-12-01T11:44:02.185Z,27.00
2022-12-01T11:45:10.192Z,27.00
2022-12-01T11:46:03.492Z,27.00
2022-12-01T11:47:22.685Z,29.00
2022-12-01T11:48:04.422Z,29.00
2022-12-01T11:49:00.278Z,29.00
2022-12-01T11:50:01.563Z,29.00
2022-12-01T11:51:03.352Z,29.00
2022-12-01T11:52:10.141Z,29.00
2022-12-01T11:53:00.697Z,29.00
2022-12-01T11:54:05.489Z,29.00
2022-12-01T11:55:06.929Z,29.00
2022-12-01T11:56:10.152Z,29.00
2022-12-01T11:57:31.794Z,29.00
2022-12-01T11:58:02.080Z,29.00
2022-12-01T11:59:03.753Z,29.00
2022-12-01T12:00:00.604Z,29.00
2022-12-01T12:01:00.443Z,29.00
2022-12-01T12:02:10.218Z,29.00
2022-12-01T12:03:10.204Z,29.00
2022-12-01T12:04:10.146Z,29.00
2022-12-01T12:05:03.506Z,29.00
2022-12-01T12:06:39.066Z,29.00
2022-12-01T12:07:07.775Z,29.00
2022-12-01T12:08:10.176Z,29.00
2022-12-01T12:09:10.204Z,29.00
2022-12-01T12:10:06.188Z,29.00
2022-12-01T12:11:10.223Z,29.00
2022-12-01T12:12:06.791Z,29.00
2022-12-01T12:13:10.169Z,29.00
2022-12-01T12:14:10.163Z,29.00
2022-12-01T12:15:10.159Z,29.00
2022-12-01T12:16:13.534Z,29.00
2022-12-01T12:17:10.163Z,34.30
2022-12-01T12:18:10.258Z,34.30
2022-12-01T12:19:05.862Z,34.30
2022-12-01T12:20:10.450Z,34.30
2022-12-01T12:21:01.247Z,34.30
2022-12-01T12:22:00.228Z,34.30
2022-12-01T12:23:01.237Z,34.30
2022-12-01T12:24:03.551Z,34.30
2022-12-01T12:25:10.234Z,34.30
2022-12-01T12:26:10.161Z,34.30
2022-12-01T12:27:10.152Z,34.30
2022-12-01T12:28:10.165Z,34.30
2022-12-01T12:29:13.757Z,34.30
2022-12-01T12:30:06.627Z,34.30
2022-12-01T12:31:10.275Z,34.30
2022-12-01T12:32:01.236Z,34.30
2022-12-01T12:33:10.155Z,34.30
2022-12-01T12:34:10.203Z,34.30
2022-12-01T12:35:10.192Z,34.30
2022-12-01T12:36:10.160Z,34.30
2022-12-01T12:37:10.163Z,34.30
2022-12-01T12:38:10.167Z,34.30
2022-12-01T12:39:03.511Z,34.30
2022-12-01T12:40:07.840Z,34.30
2022-12-01T12:41:10.158Z,34.30
2022-12-01T12:42:04.749Z,34.30
2022-12-01T12:43:07.353Z,34.30
2022-12-01T12:44:03.529Z,34.30
2022-12-01T12:45:00.312Z,34.30
2022-12-01T12:46:03.802Z,34.30
2022-12-01T12:47:01.228Z,35.50
2022-12-01T12:48:00.287Z,35.50
2022-12-01T12:49:20.772Z,35.50
2022-12-01T12:50:00.227Z,35.50
2022-12-01T12:51:07.771Z,35.50
2022-12-01T12:52:08.630Z,35.50